Latest Weather Observations for Coondewanna

IDW60801

Issued at 7:34 am WST Sunday 22 January 2017 (issued every 30 minutes, with the page automatically refreshed every 10 minutes)

About weather observations | Map of weather stations | Latest weather observations for WA | Other Formats
Station Details ID: 505051 Name: COONDEWANNA Lat: -22.96 Lon: 118.81 Height: 697.63 m
Data from the previous 72 hours. | See also: Recent months for locations in Western Australia
Date/Time
WST
Temp
°C
App
Temp
°C
Dew
Point
°C
Rel
Hum
%
Delta-T
°C
Wind Press
QNH
hPa
Press
MSL
hPa
Rain since
9am
mm
Dir  Spd
km/h
Gust
km/h
Spd
kts
Gust
kts
22/07:30am 24.7 27.1 20.0 75 3.1 WNW 7 7 4 4 1011.4 1005.0 10.4
22/07:00am 23.5 26.1 20.0 81 2.3 WNW 6 9 3 5 1011.3 1004.9 10.4
22/06:30am 23.4 25.7 19.8 80 2.4 WNW 7 11 4 6 1011.1 1004.7 10.4
22/06:00am 23.4 25.4 20.0 81 2.3 NW 9 11 5 6 1010.6 1004.2 10.4
22/05:30am 23.5 25.4 19.8 80 2.4 NW 9 13 5 7 1010.2 1003.8 10.4
22/05:00am 23.8 25.0 19.9 79 2.6 NW 13 20 7 11 1010.0 1003.6 10.4
22/04:30am 23.4 26.2 20.9 86 1.7 NW 7 9 4 5 1010.0 1003.6 10.4
22/04:00am 23.4 26.4 21.3 88 1.4 NW 7 9 4 5 1009.8 1003.4 10.4
22/03:30am 23.3 27.3 21.4 89 1.3 NW 2 7 1 4 1009.8 1003.4 10.4
22/03:00am 23.3 26.7 21.6 90 1.2 NW 6 7 3 4 1009.8 1003.4 10.4
22/02:30am 23.3 26.6 21.4 89 1.3 NW 6 7 3 4 1009.9 1003.5 10.4
22/02:00am 23.7 27.1 21.0 85 1.8 NW 4 7 2 4 1010.0 1003.6 10.4
22/01:30am 23.5 26.9 21.0 86 1.7 NW 4 11 2 6 1010.1 1003.7 10.4
22/01:00am 23.4 25.8 20.9 86 1.7 NNW 9 13 5 7 1010.1 1003.7 10.4
22/12:30am 23.2 25.9 20.7 86 1.7 NW 7 11 4 6 1010.1 1003.7 10.4
22/12:00am 22.9 26.8 20.4 86 1.7 CALM 0 6 0 3 1010.4 1004.0 10.4
 
Date/Time
WST
Temp
°C
App
Temp
°C
Dew
Point
°C
Rel
Hum
%
Delta-T
°C
Wind Press
QNH
hPa
Press
MSL
hPa
Rain since
9am
mm
Dir  Spd
km/h
Gust
km/h
Spd
kts
Gust
kts
21/11:30pm 22.5 24.5 20.8 90 1.1 NNW 11 19 6 10 1010.7 1004.3 10.4
21/11:00pm 22.4 24.4 20.7 90 1.1 N 11 22 6 12 1010.9 1004.5 10.2
21/10:30pm 22.5 23.3 20.6 89 1.3 NNW 17 26 9 14 1011.2 1004.8 9.8
21/10:00pm 22.8 24.1 20.9 89 1.3 NNW 15 19 8 10 1011.2 1004.8 9.2
21/09:30pm 22.7 23.3 21.0 90 1.1 NNW 19 26 10 14 1011.2 1004.8 7.8
21/09:00pm 22.4 24.1 20.9 91 1.0 NW 13 17 7 9 1011.2 1004.8 6.4
21/08:30pm 22.6 24.3 20.9 90 1.1 NW 13 19 7 10 1010.9 1004.5 6.0
21/08:22pm 22.5 23.9 21.0 91 1.0 NNW 15 20 8 11 1010.8 1004.4 5.8
21/08:00pm 22.5 22.6 20.4 88 1.4 NNW 20 30 11 16 1010.7 1004.3 3.0
21/07:50pm 23.0 22.5 20.0 83 2.0 NW 22 37 12 20 1010.6 1004.2 1.2
21/07:30pm 25.2 28.9 20.0 73 3.5 CALM 0 0 0 0 1009.9 1003.5 0.0
21/07:00pm 25.6 26.2 19.5 69 4.0 SSW 15 20 8 11 1009.8 1003.4 0.0
21/06:30pm 25.7 24.0 20.5 73 3.5 WSW 30 35 16 19 1009.5 1003.1 0.0
21/06:17pm 27.4 28.4 20.2 65 4.8 NW 15 39 8 21 1009.2 1002.7 0.0
21/06:00pm 27.5 29.2 20.1 64 5.0 NNE 11 15 6 8 1008.2 1001.8 0.0
21/05:30pm 27.6 27.5 20.7 66 4.7 N 22 35 12 19 1007.8 1001.3 0.0
21/05:00pm 32.0 32.6 20.3 50 8.0 NE 17 26 9 14 1007.3 1000.9 0.0
21/04:30pm 32.4 32.2 19.3 46 8.8 NNE 19 28 10 15 1007.0 1000.6 0.0
21/04:00pm 32.9 34.2 20.1 47 8.7 NE 13 15 7 8 1007.0 1000.6 0.0
21/03:30pm 33.2 35.7 21.0 48 8.4 N 9 15 5 8 1007.3 1000.9 0.0
21/03:00pm 32.3 33.6 19.2 46 8.8 N 11 19 6 10 1007.8 1001.3 0.0
21/02:30pm 32.5 34.3 18.7 44 9.2 NW 7 15 4 8 1008.0 1001.6 0.0
21/02:00pm 32.7 35.0 17.7 40 9.9 NNE 2 9 1 5 1008.2 1001.8 0.0
21/01:30pm 31.5 33.4 19.8 49 7.9 N 9 19 5 10 1008.6 1002.2 0.0
21/01:00pm 31.5 33.5 20.8 53 7.3 NNE 11 15 6 8 1008.8 1002.4 0.0
21/12:30pm 30.8 33.0 20.4 54 7.1 ENE 9 15 5 8 1009.1 1002.6 0.0
21/12:00pm 30.1 32.0 19.8 54 6.9 N 9 17 5 9 1009.5 1003.1 0.0
21/11:30am 29.5 31.8 19.8 56 6.5 SE 7 15 4 8 1009.8 1003.4 0.0
21/11:00am 28.2 30.9 20.2 62 5.4 N 6 9 3 5 1010.1 1003.7 0.0
21/10:30am 26.9 30.7 21.6 72 3.6 NW 4 9 2 5 1010.3 1003.9 0.0
21/10:00am 25.9 30.3 21.3 76 3.1 CALM 0 0 0 0 1010.4 1004.0 0.0
21/09:30am 25.4 30.0 21.7 80 2.5 CALM 0 0 0 0 1010.3 1003.9 0.0
21/09:00am 24.7 29.0 21.2 81 2.4 CALM 0 0 0 0 1010.3 1003.9 10.8
21/08:30am 24.1 28.3 21.0 83 2.1 CALM 0 0 0 0 1010.2 1003.8 10.8
21/08:00am 23.8 26.7 20.7 83 2.1 NW 6 9 3 5 1009.9 1003.5 10.8
21/07:30am 23.4 26.8 20.9 86 1.7 NW 4 6 2 3 1009.6 1003.2 10.8
21/07:00am 23.1 25.5 20.8 87 1.5 NW 9 11 5 6 1009.5 1003.1 10.8
21/06:30am 22.8 26.7 21.1 90 1.1 NW 2 6 1 3 1009.3 1002.9 10.8
21/06:00am 22.5 25.4 21.0 91 1.0 NW 7 9 4 5 1008.9 1002.5 10.8
21/05:30am 22.4 26.6 20.9 91 1.0 CALM 0 0 0 0 1008.6 1002.2 10.8
21/05:00am 22.5 26.1 21.3 93 0.8 NW 4 9 2 5 1008.7 1002.3 10.8
21/04:30am 22.6 25.8 21.6 94 0.7 NW 7 11 4 6 1008.7 1002.3 10.8
21/04:00am 22.7 25.7 21.9 95 0.5 WNW 9 13 5 7 1008.6 1002.2 10.6
21/03:30am 22.8 25.8 22.0 95 0.5 NNW 9 13 5 7 1008.6 1002.2 10.6
21/03:00am 23.0 26.4 22.0 94 0.7 WNW 7 9 4 5 1008.5 1002.1 10.2
21/02:30am 23.1 26.6 21.9 93 0.8 ENE 6 9 3 5 1008.8 1002.4 10.2
21/02:00am 23.2 26.2 22.0 93 0.8 ENE 9 11 5 6 1008.7 1002.3 10.2
21/01:30am 23.1 26.2 22.1 94 0.7 NE 9 13 5 7 1008.9 1002.5 10.2
21/01:00am 22.9 26.2 21.9 94 0.7 NNE 7 9 4 5 1009.4 1003.0 10.0
21/12:30am 22.7 26.1 21.7 94 0.7 NNE 6 7 3 4 1009.6 1003.2 9.8
21/12:02am 22.7 26.1 22.0 96 0.5 W 7 9 4 5 1009.7 1003.3 9.0
21/12:00am 22.7 26.0 21.9 95 0.5 W 7 9 4 5 1009.7 1003.3 8.8
 
Date/Time
WST
Temp
°C
App
Temp
°C
Dew
Point
°C
Rel
Hum
%
Delta-T
°C
Wind Press
QNH
hPa
Press
MSL
hPa
Rain since
9am
mm
Dir  Spd
km/h
Gust
km/h
Spd
kts
Gust
kts
20/11:30pm 22.8 25.3 21.8 94 0.7 WSW 11 13 6 7 1010.4 1004.0 8.4
20/11:12pm 22.9 26.0 21.5 92 0.9 ENE 7 11 4 6 1010.3 1003.9 8.2
20/11:00pm 23.0 26.2 21.6 92 0.9 ENE 7 11 4 6 1010.3 1003.9 8.0
20/10:30pm 23.2 25.6 21.6 91 1.1 ENE 11 15 6 8 1009.9 1003.5 6.8
20/10:00pm 23.3 26.0 22.1 93 0.8 ENE 11 15 6 8 1009.6 1003.2 6.2
20/09:30pm 22.8 25.7 21.8 94 0.7 NE 9 9 5 5 1009.2 1002.7 6.2
20/09:00pm 22.8 26.0 21.6 93 0.8 NE 7 11 4 6 1009.3 1002.9 4.8
20/08:30pm 22.8 25.6 21.6 93 0.8 NE 9 13 5 7 1009.3 1002.9 2.8
20/08:00pm 23.8 26.6 21.5 87 1.6 SSE 9 17 5 9 1009.4 1003.0 0.6
20/07:30pm 24.3 24.9 21.0 82 2.2 ESE 19 26 10 14 1009.1 1002.6 0.6
20/07:00pm 24.8 24.3 20.7 78 2.8 ENE 24 33 13 18 1008.0 1001.6 0.6
20/06:30pm 25.6 25.0 21.9 80 2.5 E 28 46 15 25 1007.6 1001.1 0.6
20/06:10pm 26.3 26.1 21.3 74 3.4 ESE 24 43 13 23 1007.6 1001.1 0.6
20/06:00pm 26.5 29.0 21.0 72 3.7 ENE 9 11 5 6 1006.9 1000.5 0.6
20/05:30pm 25.7 28.2 21.1 76 3.1 NE 9 13 5 7 1006.5 1000.0 0.6
20/05:00pm 25.4 27.6 21.1 77 2.9 N 11 17 6 9 1006.2 999.7 0.6
20/04:30pm 24.9 25.6 20.4 76 3.0 NNW 17 30 9 16 1005.8 999.4 0.6
20/04:00pm 24.8 24.8 21.7 83 2.1 NNW 24 33 13 18 1006.7 1000.3 0.6
20/03:30pm 26.7 28.7 22.3 77 3.0 NNW 15 26 8 14 1006.7 1000.3 0.6
20/03:00pm 27.0 28.0 22.2 75 3.3 NE 20 28 11 15 1005.6 999.2 0.6
20/02:30pm 26.1 26.0 21.5 76 3.1 SSW 24 33 13 18 1005.4 999.0 0.2
20/02:00pm 28.7 25.6 20.4 60 5.6 SSW 37 50 20 27 1005.8 999.4 0.0
20/01:43pm 31.4 32.1 20.4 52 7.5 S 17 50 9 27 1005.7 999.3 0.0
20/01:30pm 35.6 36.8 17.3 33 12.1 SSE 7 17 4 9 1005.4 999.0 0.0
20/01:00pm 34.5 34.9 17.3 36 11.4 E 11 24 6 13 1006.1 999.6 0.0
20/12:30pm 34.1 34.5 18.2 39 10.6 ENE 13 22 7 12 1006.5 1000.0 0.0
20/12:00pm 32.4 33.7 19.3 46 8.8 NE 11 17 6 9 1007.0 1000.6 0.0
20/11:30am 32.8 34.7 19.7 46 8.9 NNE 9 13 5 7 1007.3 1000.9 0.0
20/11:00am 31.9 34.4 20.2 50 8.0 SSE 7 15 4 8 1007.7 1001.2 0.0
20/10:30am 31.5 33.3 20.4 51 7.6 E 11 19 6 10 1008.0 1001.6 0.0
20/10:00am 30.5 33.2 21.3 58 6.3 E 9 17 5 9 1008.1 1001.7 0.0
20/09:30am 29.5 31.8 21.4 61 5.6 S 11 19 6 10 1008.2 1001.8 0.0
20/09:00am 28.5 30.7 20.5 62 5.4 SSE 9 19 5 10 1008.3 1001.9 10.2
20/08:30am 27.7 29.7 20.0 63 5.2 SSW 9 15 5 8 1008.4 1002.0 10.2
20/08:00am 26.9 30.1 21.2 71 3.9 SW 6 9 3 5 1008.2 1001.8 10.2
20/07:30am 26.4 29.2 21.6 75 3.3 SW 9 11 5 6 1008.1 1001.7 10.2
20/07:00am 26.2 30.7 21.6 76 3.1 CALM 0 6 0 3 1008.0 1001.6 10.2
20/06:30am 25.1 29.3 22.4 85 1.9 S 4 7 2 4 1007.9 1001.5 10.2
20/06:00am 24.3 27.8 22.2 88 1.4 S 7 9 4 5 1007.4 1001.0 10.2
20/05:30am 24.3 27.9 22.4 89 1.3 S 7 9 4 5 1007.0 1000.6 10.2
20/05:00am 24.2 28.1 22.6 91 1.1 S 6 6 3 3 1006.7 1000.3 10.2
20/04:30am 24.0 28.7 21.9 88 1.4 CALM 0 0 0 0 1006.4 999.9 10.2
20/04:00am 24.1 29.0 22.4 90 1.2 CALM 0 0 0 0 1006.3 999.8 10.2
20/03:30am 23.9 28.8 22.3 91 1.1 CALM 0 7 0 4 1006.4 999.9 10.2
20/03:00am 24.1 27.6 22.2 89 1.3 S 7 7 4 4 1006.4 999.9 10.2
20/02:30am 23.9 27.6 22.2 90 1.2 S 6 9 3 5 1006.3 999.8 10.2
20/02:00am 24.0 27.7 22.3 90 1.2 S 6 7 3 4 1006.3 999.8 10.2
20/01:30am 24.1 28.1 22.0 88 1.4 S 4 6 2 3 1006.4 999.9 10.2
20/01:00am 23.9 27.6 22.2 90 1.2 S 6 7 3 4 1006.6 1000.2 10.2
20/12:30am 23.7 27.6 21.8 89 1.3 S 4 9 2 5 1006.9 1000.5 10.2
20/12:00am 23.6 27.1 21.9 90 1.2 S 6 9 3 5 1007.3 1000.9 10.2
 
Date/Time
WST
Temp
°C
App
Temp
°C
Dew
Point
°C
Rel
Hum
%
Delta-T
°C
Wind Press
QNH
hPa
Press
MSL
hPa
Rain since
9am
mm
Dir  Spd
km/h
Gust
km/h
Spd
kts
Gust
kts
19/11:30pm 23.4 26.7 21.8 91 1.1 S 7 9 4 5 1007.6 1001.1 10.2
19/11:00pm 23.2 26.7 21.8 92 1.0 S 6 7 3 4 1007.9 1001.5 10.2
19/10:30pm 22.9 26.3 21.7 93 0.8 S 6 7 3 4 1008.2 1001.8 10.2
19/10:00pm 22.7 27.2 21.5 93 0.8 CALM 0 0 0 0 1008.3 1001.9 10.2
19/09:30pm 22.4 25.3 21.0 92 0.9 S 7 9 4 5 1008.5 1002.1 10.2
19/09:00pm 22.7 25.7 21.2 91 1.0 S 7 9 4 5 1008.9 1002.5 10.2
19/08:30pm 22.5 25.6 21.5 94 0.7 S 7 11 4 6 1008.8 1002.4 10.0
19/08:10pm 22.5 23.7 21.5 94 0.7 SW 17 20 9 11 1008.8 1002.4 10.0
19/08:00pm 22.0 23.1 21.2 95 0.5 W 17 20 9 11 1008.5 1002.1 9.8
19/07:37pm 21.8 20.5 20.6 93 0.8 S 28 41 15 22 1008.8 1002.4 2.4
19/07:30pm 23.3 22.0 20.6 85 1.8 S 28 39 15 21 1008.9 1002.5 0.2
19/07:00pm 24.8 25.6 21.3 81 2.4 ESE 19 26 10 14 1007.6 1001.1 0.0
19/06:30pm 25.2 24.4 20.9 77 2.9 E 26 37 14 20 1007.3 1000.9 0.0
19/06:00pm 26.4 25.0 22.0 77 3.0 ESE 32 48 17 26 1007.0 1000.6 0.0
19/05:58pm 26.8 26.1 21.8 74 3.4 ESE 28 46 15 25 1007.0 1000.6 0.0
19/05:30pm 26.7 29.0 22.1 76 3.2 ENE 13 19 7 10 1006.5 1000.0 0.0
19/05:00pm 27.7 27.5 21.3 68 4.4 ENE 24 32 13 17 1006.5 1000.0 0.0
19/04:30pm 30.6 31.8 21.4 58 6.3 SSW 17 33 9 18 1006.2 999.7 0.0
19/04:00pm 32.8 32.0 20.0 47 8.7 WSW 24 33 13 18 1005.7 999.3 0.0
19/03:30pm 33.0 32.6 20.9 49 8.3 WSW 24 39 13 21 1006.0 999.5 0.0
19/03:00pm 32.2 32.0 20.5 50 8.0 WSW 22 35 12 19 1006.4 999.9 0.0
19/02:30pm 32.3 32.1 20.5 49 8.1 WSW 22 32 12 17 1006.3 999.8 0.0
19/02:00pm 31.9 32.1 20.5 51 7.8 WSW 20 30 11 16 1006.7 1000.3 0.0
19/01:30pm 31.6 31.5 19.9 50 7.9 WSW 20 26 11 14 1007.2 1000.8 0.0
19/01:00pm 30.6 30.9 20.5 54 6.9 WSW 19 26 10 14 1007.8 1001.3 0.0
19/12:30pm 30.0 30.9 20.8 57 6.3 W 17 24 9 13 1008.3 1001.9 0.0
19/12:00pm 30.0 31.6 20.8 57 6.3 W 13 22 7 12 1008.9 1002.5 0.0
19/11:30am 29.0 30.4 21.0 62 5.5 WSW 15 22 8 12 1009.3 1002.9 0.0
19/11:00am 28.6 30.5 20.6 62 5.4 SW 11 20 6 11 1009.4 1003.0 0.0
19/10:30am 28.5 30.4 20.5 62 5.4 SW 11 17 6 9 1009.5 1003.1 0.0
19/10:00am 27.3 28.1 20.6 67 4.5 SW 17 24 9 13 1009.7 1003.3 0.0
19/09:30am 26.8 27.7 20.9 70 4.0 WSW 17 24 9 13 1009.9 1003.5 0.0
19/09:00am 26.9 28.0 20.5 68 4.3 SW 15 24 8 13 1009.9 1003.5 23.6
19/08:30am 26.3 27.0 20.4 70 4.0 SW 17 24 9 13 1010.0 1003.6 23.6
19/08:00am 25.5 27.1 20.7 75 3.2 W 13 17 7 9 1009.8 1003.4 23.6

Other Formats:

Comma delimited format used in spreadsheet applications
http://www.bom.gov.au/fwo/IDW60801/IDW60801.99312.axf

JavaScript Object Notation format (JSON) in row-major order
http://www.bom.gov.au/fwo/IDW60801/IDW60801.99312.json